createdAt,value
2018-04-10T00:01:48.689Z,64.67
2018-04-10T00:04:14.845Z,65.10
2018-04-10T00:06:41.742Z,64.40
2018-04-10T00:09:07.903Z,64.90
2018-04-10T00:11:34.829Z,68.73
2018-04-10T00:14:00.979Z,61.40
2018-04-10T00:16:27.418Z,66.40
2018-04-10T00:18:53.585Z,66.37
2018-04-10T00:21:19.934Z,66.63
2018-04-10T00:23:46.082Z,64.40
2018-04-10T00:26:12.230Z,64.83
2018-04-10T00:28:38.398Z,63.07
2018-04-10T00:31:05.322Z,64.57
2018-04-10T00:33:31.510Z,63.77
2018-04-10T00:35:58.411Z,67.50
2018-04-10T00:38:24.657Z,61.23
2018-04-10T00:40:50.801Z,62.70
2018-04-10T00:43:16.958Z,63.30
2018-04-10T00:45:43.110Z,61.77
2018-04-10T00:48:09.290Z,60.17
2018-04-10T00:50:36.230Z,59.60
2018-04-10T00:53:14.795Z,60.10
2018-04-10T00:55:41.001Z,58.57
2018-04-10T00:58:07.154Z,58.90
2018-04-10T01:00:34.114Z,57.80
2018-04-10T01:03:00.313Z,59.50
2018-04-10T01:05:26.470Z,59.77
2018-04-10T01:07:53.366Z,58.90
2018-04-10T01:10:19.497Z,58.57
2018-04-10T01:12:45.677Z,57.50
2018-04-10T01:15:11.822Z,58.80
2018-04-10T01:17:38.150Z,55.17
2018-04-10T01:20:05.078Z,54.93
2018-04-10T01:22:31.305Z,53.33
2018-04-10T01:24:57.429Z,52.40
2018-04-10T01:27:23.577Z,56.40
2018-04-10T01:29:49.764Z,55.60
2018-04-10T01:32:15.952Z,53.70
2018-04-10T01:34:43.594Z,51.80
2018-04-10T01:37:09.758Z,52.37
2018-04-10T01:39:36.202Z,53.60
2018-04-10T01:42:03.105Z,52.83
2018-04-10T01:44:29.471Z,52.87
2018-04-10T01:46:55.650Z,50.83
2018-04-10T01:49:21.797Z,50.67
2018-04-10T01:51:47.981Z,51.67
2018-04-10T01:54:14.122Z,53.27
2018-04-10T01:56:41.810Z,52.03
2018-04-10T01:59:08.722Z,52.13
2018-04-10T02:01:36.381Z,50.57
2018-04-10T02:04:02.522Z,53.70
2018-04-10T02:06:28.825Z,52.20
2018-04-10T02:08:54.970Z,51.97
2018-04-10T02:11:42.067Z,54.83
2018-04-10T02:14:08.321Z,54.57
2018-04-10T02:16:34.517Z,58.03
2018-04-10T02:19:01.024Z,53.70
2018-04-10T02:21:27.237Z,55.17
2018-04-10T02:23:54.233Z,55.60
2018-04-10T02:26:20.433Z,52.80
2018-04-10T02:28:46.881Z,54.90
2018-04-10T02:31:13.068Z,54.50
2018-04-10T02:33:39.250Z,51.83
2018-04-10T02:36:06.193Z,54.13
2018-04-10T02:38:32.417Z,56.43
2018-04-10T02:40:59.413Z,55.03
2018-04-10T02:43:25.649Z,55.17
2018-04-10T02:45:51.861Z,54.80
2018-04-10T02:48:18.061Z,52.10
2018-04-10T02:50:44.277Z,52.53
2018-04-10T02:53:10.484Z,53.50
2018-04-10T02:55:36.689Z,55.17
2018-04-10T02:58:03.626Z,55.20
2018-04-10T03:00:30.573Z,53.43
2018-04-10T03:02:57.537Z,55.10
2018-04-10T03:05:23.726Z,55.40
2018-04-10T03:07:49.959Z,53.00
2018-04-10T03:10:16.252Z,54.83
2018-04-10T03:12:42.471Z,54.10
2018-04-10T03:15:09.439Z,54.17
2018-04-10T03:17:36.388Z,54.43
2018-04-10T03:20:02.632Z,53.40
2018-04-10T03:22:28.842Z,54.27
2018-04-10T03:24:55.065Z,52.40
2018-04-10T03:27:22.028Z,54.47
2018-04-10T03:29:48.269Z,52.13
2018-04-10T03:32:14.468Z,55.07
2018-04-10T03:34:40.677Z,52.10
2018-04-10T03:37:06.936Z,52.77
2018-04-10T03:39:34.648Z,56.47
2018-04-10T03:42:01.140Z,54.53
2018-04-10T03:44:27.340Z,53.70
2018-04-10T03:46:53.533Z,53.87
2018-04-10T03:49:20.469Z,54.70
2018-04-10T03:51:46.685Z,52.37
2018-04-10T03:54:12.927Z,52.07
2018-04-10T03:56:39.189Z,50.00
2018-04-10T03:59:05.457Z,52.60
2018-04-10T04:01:31.733Z,49.77
2018-04-10T04:03:57.981Z,50.93
2018-04-10T04:06:24.239Z,51.60
2018-04-10T04:08:51.208Z,49.30
2018-04-10T04:11:18.238Z,49.67
2018-04-10T04:13:45.221Z,50.47
2018-04-10T04:16:23.941Z,49.80
2018-04-10T04:19:02.727Z,51.10
2018-04-10T04:21:41.232Z,46.90
2018-04-10T04:24:08.249Z,46.80
2018-04-10T04:26:34.513Z,49.43
2018-04-10T04:29:00.745Z,50.00
2018-04-10T04:31:27.014Z,49.90
2018-04-10T04:33:53.244Z,48.97
2018-04-10T04:36:19.465Z,48.50
2018-04-10T04:38:46.485Z,50.50
2018-04-10T04:41:12.745Z,49.57
2018-04-10T04:43:39.216Z,50.63
2018-04-10T04:46:06.212Z,50.40
2018-04-10T04:48:32.465Z,52.53
2018-04-10T04:50:59.467Z,49.70
2018-04-10T04:53:25.786Z,51.70
2018-04-10T04:55:53.480Z,50.50
2018-04-10T04:58:19.741Z,51.07
2018-04-10T05:00:46.008Z,53.50
2018-04-10T05:03:13.750Z,50.20
2018-04-10T05:05:39.996Z,53.70
2018-04-10T05:08:06.231Z,51.13
2018-04-10T05:10:33.244Z,51.57
2018-04-10T05:12:59.756Z,51.30
2018-04-10T05:15:26.774Z,51.50
2018-04-10T05:17:53.027Z,51.20
2018-04-10T05:20:19.285Z,53.53
2018-04-10T05:22:45.560Z,53.23
2018-04-10T05:25:12.933Z,53.57
2018-04-10T05:27:39.173Z,54.57
2018-04-10T05:30:05.413Z,52.20
2018-04-10T05:32:31.661Z,50.17
2018-04-10T05:34:57.873Z,52.23
2018-04-10T05:37:24.149Z,52.57
2018-04-10T05:39:51.169Z,52.67
2018-04-10T05:42:18.901Z,52.83
2018-04-10T05:44:45.280Z,52.07
2018-04-10T05:47:12.262Z,52.10
2018-04-10T05:49:39.249Z,51.70
2018-04-10T05:52:05.520Z,51.77
2018-04-10T05:54:31.929Z,53.27
2018-04-10T05:56:58.184Z,55.17
2018-04-10T05:59:24.445Z,51.13
2018-04-10T06:01:50.755Z,50.37
2018-04-10T06:04:17.010Z,50.73
2018-04-10T06:06:43.249Z,50.53
2018-04-10T06:09:10.268Z,52.60
2018-04-10T06:11:36.521Z,52.60
2018-04-10T06:14:02.773Z,53.20
2018-04-10T06:16:29.776Z,49.13
2018-04-10T06:18:56.046Z,49.53
2018-04-10T06:21:22.335Z,47.43
2018-04-10T06:23:48.570Z,48.33
2018-04-10T06:26:14.815Z,47.60
2018-04-10T06:28:41.057Z,48.10
2018-04-10T06:31:07.527Z,48.57
2018-04-10T06:33:34.553Z,47.83
2018-04-10T06:36:00.809Z,46.60
2018-04-10T06:38:27.040Z,45.07
2018-04-10T06:40:53.321Z,46.30
2018-04-10T06:43:19.552Z,43.77
2018-04-10T06:45:46.568Z,45.63
2018-04-10T06:48:12.804Z,46.53
2018-04-10T06:50:40.522Z,43.90
2018-04-10T06:53:06.804Z,45.30
2018-04-10T06:55:33.041Z,44.43
2018-04-10T06:58:00.065Z,43.67
2018-04-10T07:00:26.331Z,44.07
2018-04-10T07:02:53.348Z,46.33
2018-04-10T07:05:19.578Z,46.33
2018-04-10T07:07:45.853Z,46.13
2018-04-10T07:10:12.853Z,45.87
2018-04-10T07:12:39.121Z,46.23
2018-04-10T07:15:05.412Z,46.13
2018-04-10T07:17:32.389Z,46.73
2018-04-10T07:19:58.685Z,46.27
2018-04-10T07:22:25.665Z,45.43
2018-04-10T07:24:51.919Z,45.33
2018-04-10T07:27:18.123Z,47.37
2018-04-10T07:29:45.034Z,43.13
2018-04-10T07:32:11.232Z,41.47
2018-04-10T07:34:37.420Z,43.47
2018-04-10T07:37:03.578Z,45.60
2018-04-10T07:39:29.794Z,42.50
2018-04-10T07:41:56.194Z,44.70
2018-04-10T07:44:22.382Z,45.70
2018-04-10T07:46:48.585Z,46.20
2018-04-10T07:49:15.485Z,45.73
2018-04-10T07:51:41.686Z,46.03
2018-04-10T07:54:08.625Z,45.40
2018-04-10T07:56:34.790Z,43.60
2018-04-10T07:59:01.690Z,42.10
2018-04-10T08:01:29.369Z,42.63
2018-04-10T08:03:55.533Z,44.90
2018-04-10T08:06:21.713Z,46.03
2018-04-10T08:08:47.871Z,46.53
2018-04-10T08:11:14.047Z,43.90
2018-04-10T08:13:40.209Z,42.10
2018-04-10T08:16:06.395Z,43.37
2018-04-10T08:18:32.605Z,41.10
2018-04-10T08:20:58.749Z,43.40
2018-04-10T08:23:25.657Z,43.93
2018-04-10T08:25:52.646Z,42.57
2018-04-10T08:28:18.814Z,41.23
2018-04-10T08:30:45.003Z,39.97
2018-04-10T08:33:11.933Z,42.17
2018-04-10T08:35:38.121Z,41.50
2018-04-10T08:38:04.490Z,40.83
2018-04-10T08:40:30.646Z,40.07
2018-04-10T08:42:56.802Z,38.67
2018-04-10T08:45:23.086Z,40.30
2018-04-10T08:47:49.261Z,40.47
2018-04-10T08:50:15.467Z,41.87
2018-04-10T08:52:41.646Z,36.60
2018-04-10T08:55:07.846Z,39.63
2018-04-10T08:57:34.063Z,37.90
2018-04-10T09:00:00.234Z,37.30
2018-04-10T09:02:27.190Z,40.40
2018-04-10T09:04:53.405Z,39.10
2018-04-10T09:07:19.759Z,38.10
2018-04-10T09:09:45.922Z,37.57
2018-04-10T09:12:12.126Z,40.87
2018-04-10T09:14:39.026Z,39.67
2018-04-10T09:17:05.214Z,40.90
2018-04-10T09:19:32.133Z,38.87
2018-04-10T09:21:58.290Z,38.83
2018-04-10T09:24:24.446Z,44.17
2018-04-10T09:26:50.862Z,41.83
2018-04-10T09:29:17.039Z,43.53
2018-04-10T09:31:43.206Z,42.10
2018-04-10T09:34:09.402Z,43.23
2018-04-10T09:36:35.581Z,43.93
2018-04-10T09:39:03.230Z,44.60
2018-04-10T09:41:29.434Z,43.30
2018-04-10T09:43:55.583Z,44.53
2018-04-10T09:46:21.757Z,44.40
2018-04-10T09:48:48.685Z,44.57
2018-04-10T09:51:15.109Z,42.33
2018-04-10T09:53:41.321Z,43.93
2018-04-10T09:56:07.517Z,41.77
2018-04-10T09:58:34.423Z,42.43
2018-04-10T10:01:02.529Z,41.27
2018-04-10T10:03:29.670Z,40.77
2018-04-10T10:05:55.825Z,41.20
2018-04-10T10:08:22.739Z,40.60
2018-04-10T10:10:48.974Z,40.97
2018-04-10T10:13:15.126Z,40.63
2018-04-10T10:15:41.330Z,39.60
2018-04-10T10:18:07.467Z,37.83
2018-04-10T10:20:33.633Z,38.40
2018-04-10T10:22:59.883Z,39.40
2018-04-10T10:25:26.114Z,37.80
2018-04-10T10:27:52.343Z,37.93
2018-04-10T10:30:18.504Z,36.10
2018-04-10T10:32:45.414Z,36.90
2018-04-10T10:35:11.590Z,36.63
2018-04-10T10:37:38.511Z,34.40
2018-04-10T10:40:05.494Z,38.77
2018-04-10T10:42:31.662Z,35.87
2018-04-10T10:44:57.994Z,36.70
2018-04-10T10:47:24.149Z,35.40
2018-04-10T10:49:50.302Z,32.97
2018-04-10T10:52:16.502Z,34.47
2018-04-10T10:54:42.675Z,34.00
2018-04-10T10:57:08.878Z,32.87
2018-04-10T10:59:35.059Z,33.70
2018-04-10T11:02:01.252Z,33.60
2018-04-10T11:04:27.441Z,33.73
2018-04-10T11:06:53.607Z,35.80
2018-04-10T11:09:19.861Z,33.20
2018-04-10T11:11:46.038Z,33.67
2018-04-10T11:14:12.929Z,33.33
2018-04-10T11:16:39.066Z,32.00
2018-04-10T11:19:05.222Z,31.93
2018-04-10T11:21:31.389Z,30.50
2018-04-10T11:23:57.578Z,29.93
2018-04-10T11:26:23.770Z,32.60
2018-04-10T11:28:50.270Z,32.03
2018-04-10T11:31:17.205Z,29.90
2018-04-10T11:33:43.450Z,30.83
2018-04-10T11:36:10.389Z,30.80
2018-04-10T11:38:36.538Z,29.43
2018-04-10T11:41:02.706Z,30.20
2018-04-10T11:43:28.863Z,29.17
2018-04-10T11:45:55.053Z,29.77
2018-04-10T11:48:21.233Z,30.77
2018-04-10T11:50:47.393Z,29.13
2018-04-10T11:53:13.629Z,30.70
2018-04-10T11:55:40.538Z,30.73
2018-04-10T11:58:06.690Z,27.90
2018-04-10T12:00:33.197Z,31.73
2018-04-10T12:02:59.462Z,28.47
2018-04-10T12:05:25.638Z,31.07
2018-04-10T12:07:52.588Z,28.60
2018-04-10T12:10:19.496Z,28.13
2018-04-10T12:12:45.679Z,29.50
2018-04-10T12:15:12.580Z,28.90
2018-04-10T12:17:38.734Z,27.77
2018-04-10T12:20:04.917Z,28.73
2018-04-10T12:22:31.121Z,28.93
2018-04-10T12:24:57.290Z,27.50
2018-04-10T12:27:23.448Z,28.03
2018-04-10T12:29:50.014Z,27.80
2018-04-10T12:32:16.477Z,26.70
2018-04-10T12:34:43.369Z,28.80
2018-04-10T12:37:09.574Z,27.27
2018-04-10T12:39:35.778Z,28.73
2018-04-10T12:42:01.945Z,27.60
2018-04-10T12:44:28.152Z,27.30
2018-04-10T12:46:55.046Z,26.23
2018-04-10T12:49:21.210Z,26.97
2018-04-10T12:51:47.394Z,25.77
2018-04-10T12:54:13.586Z,28.87
2018-04-10T12:56:39.758Z,27.20
2018-04-10T12:59:05.913Z,27.23
2018-04-10T13:01:32.097Z,26.40
2018-04-10T13:03:58.250Z,27.13
2018-04-10T13:06:24.438Z,28.00
2018-04-10T13:08:50.610Z,26.80
2018-04-10T13:11:17.513Z,25.50
2018-04-10T13:13:43.733Z,26.90
2018-04-10T13:16:10.558Z,27.00
2018-04-10T13:18:36.714Z,26.00
2018-04-10T13:21:02.857Z,26.60
2018-04-10T13:23:29.049Z,25.90
2018-04-10T13:25:55.213Z,27.60
2018-04-10T13:28:21.438Z,24.23
2018-04-10T13:30:47.708Z,24.90
2018-04-10T13:33:13.874Z,25.23
2018-04-10T13:35:40.765Z,25.20
2018-04-10T13:38:06.962Z,25.40
2018-04-10T13:40:33.837Z,24.50
2018-04-10T13:43:00.178Z,24.87
2018-04-10T13:45:26.329Z,25.63
2018-04-10T13:47:52.478Z,24.37
2018-04-10T13:50:18.705Z,24.57
2018-04-10T13:52:44.909Z,25.67
2018-04-10T13:55:11.066Z,23.47
2018-04-10T13:57:37.254Z,24.93
2018-04-10T14:00:03.434Z,22.80
2018-04-10T14:02:29.652Z,22.07
2018-04-10T14:04:55.823Z,23.50
2018-04-10T14:07:21.966Z,23.50
2018-04-10T14:09:48.111Z,24.23
2018-04-10T14:12:14.998Z,23.17
2018-04-10T14:14:41.167Z,23.30
2018-04-10T14:17:08.081Z,23.33
2018-04-10T14:19:34.309Z,22.10
2018-04-10T14:22:00.491Z,23.97
2018-04-10T14:24:27.570Z,24.27
2018-04-10T14:26:53.792Z,26.20
2018-04-10T14:29:19.954Z,23.87
2018-04-10T14:31:46.203Z,23.80
2018-04-10T14:34:12.402Z,21.00
2018-04-10T14:36:38.578Z,22.67
2018-04-10T14:39:04.755Z,23.30
2018-04-10T14:41:31.637Z,22.90
2018-04-10T14:43:57.802Z,22.63
2018-04-10T14:46:23.973Z,21.73
2018-04-10T14:48:50.136Z,21.70
2018-04-10T14:51:16.282Z,22.63
2018-04-10T14:53:42.433Z,23.33
2018-04-10T14:56:08.585Z,22.00
2018-04-10T14:58:34.729Z,21.63
2018-04-10T15:01:02.362Z,21.57
2018-04-10T15:03:28.546Z,20.60
2018-04-10T15:05:54.713Z,22.30
2018-04-10T15:08:20.865Z,22.23
2018-04-10T15:10:47.029Z,22.67
2018-04-10T15:13:13.180Z,22.80
2018-04-10T15:15:39.421Z,21.80
2018-04-10T15:18:05.589Z,21.93
2018-04-10T15:20:31.794Z,21.47
2018-04-10T15:22:57.969Z,20.23
2018-04-10T15:25:24.163Z,20.73
2018-04-10T15:27:50.336Z,21.30
2018-04-10T15:30:16.489Z,20.03
2018-04-10T15:32:42.901Z,25.17
2018-04-10T15:35:09.053Z,23.93
2018-04-10T15:37:36.766Z,20.27
2018-04-10T15:40:02.944Z,19.50
2018-04-10T15:42:29.126Z,21.70
2018-04-10T15:44:56.029Z,19.70
2018-04-10T15:47:22.386Z,20.53
2018-04-10T15:49:48.534Z,22.33
2018-04-10T15:52:14.750Z,19.10
2018-04-10T15:54:41.669Z,19.20
2018-04-10T15:57:07.830Z,20.27
2018-04-10T15:59:34.731Z,18.50
2018-04-10T16:02:00.877Z,18.97
2018-04-10T16:04:27.090Z,18.90
2018-04-10T16:06:53.276Z,18.93
2018-04-10T16:09:20.217Z,18.43
2018-04-10T16:11:46.414Z,24.03
2018-04-10T16:14:12.578Z,19.07
2018-04-10T16:16:38.850Z,18.47
2018-04-10T16:19:05.749Z,18.13
2018-04-10T16:21:31.914Z,22.87
2018-04-10T16:23:58.826Z,17.90
2018-04-10T16:26:24.997Z,18.30
2018-04-10T16:28:51.910Z,19.60
2018-04-10T16:31:18.072Z,18.07
2018-04-10T16:33:44.530Z,18.20
2018-04-10T16:36:10.691Z,19.30
2018-04-10T16:38:36.874Z,18.50
2018-04-10T16:41:03.021Z,18.83
2018-04-10T16:43:29.291Z,17.97
2018-04-10T16:45:55.449Z,19.77
2018-04-10T16:48:21.643Z,17.53
2018-04-10T16:50:48.578Z,18.07
2018-04-10T16:53:16.216Z,16.80
2018-04-10T16:55:42.406Z,17.40
2018-04-10T16:58:08.590Z,19.30
2018-04-10T17:00:34.783Z,20.83
2018-04-10T17:03:00.953Z,18.10
2018-04-10T17:05:27.144Z,17.67
2018-04-10T17:07:54.025Z,16.50
2018-04-10T17:10:20.209Z,16.80
2018-04-10T17:12:47.106Z,17.50
2018-04-10T17:15:13.307Z,18.90
2018-04-10T17:17:39.503Z,17.37
2018-04-10T17:20:05.683Z,16.70
2018-04-10T17:22:31.838Z,19.10
2018-04-10T17:24:58.003Z,17.57
2018-04-10T17:27:24.898Z,15.87
2018-04-10T17:29:51.097Z,17.53
2018-04-10T17:32:17.504Z,18.60
2018-04-10T17:34:44.454Z,18.30
2018-04-10T17:37:10.689Z,18.00
2018-04-10T17:39:36.878Z,18.67
2018-04-10T17:42:03.054Z,20.00
2018-04-10T17:44:29.249Z,19.53
2018-04-10T17:46:55.419Z,17.30
2018-04-10T17:49:21.609Z,17.70
2018-04-10T17:51:47.830Z,18.43
2018-04-10T17:54:14.270Z,17.90
2018-04-10T17:56:40.437Z,18.17
2018-04-10T17:59:06.629Z,19.77
2018-04-10T18:01:33.538Z,19.47
2018-04-10T18:03:59.728Z,17.00
2018-04-10T18:06:25.931Z,17.80
2018-04-10T18:08:52.097Z,17.87
2018-04-10T18:11:18.294Z,18.80
2018-04-10T18:13:44.481Z,18.40
2018-04-10T18:16:10.668Z,19.83
2018-04-10T18:18:37.570Z,19.63
2018-04-10T18:21:03.759Z,18.70
2018-04-10T18:23:30.670Z,17.47
2018-04-10T18:25:56.854Z,19.37
2018-04-10T18:28:23.783Z,19.17
2018-04-10T18:30:49.950Z,18.27
2018-04-10T18:33:16.838Z,19.60
2018-04-10T18:35:43.338Z,18.43
2018-04-10T18:38:10.251Z,17.90
2018-04-10T18:40:36.457Z,17.33
2018-04-10T18:43:02.637Z,16.27
2018-04-10T18:45:29.529Z,17.67
2018-04-10T18:47:55.678Z,19.03
2018-04-10T18:50:21.887Z,17.87
2018-04-10T18:52:48.039Z,18.77
2018-04-10T18:55:14.459Z,17.40
2018-04-10T18:57:40.693Z,19.50
2018-04-10T19:00:06.858Z,18.53
2018-04-10T19:02:33.020Z,17.20
2018-04-10T19:04:59.942Z,17.70
2018-04-10T19:07:26.150Z,21.60
2018-04-10T19:09:52.313Z,19.77
2018-04-10T19:12:18.463Z,19.00
2018-04-10T19:14:45.370Z,17.23
2018-04-10T19:17:11.526Z,18.30
2018-04-10T19:19:37.685Z,18.80
2018-04-10T19:22:03.908Z,19.57
2018-04-10T19:24:30.073Z,19.67
2018-04-10T19:26:56.981Z,17.20
2018-04-10T19:29:23.151Z,17.40
2018-04-10T19:31:49.330Z,16.60
2018-04-10T19:34:15.521Z,16.53
2018-04-10T19:36:41.852Z,15.80
2018-04-10T19:39:08.042Z,17.13
2018-04-10T19:41:34.190Z,18.00
2018-04-10T19:44:01.101Z,18.73
2018-04-10T19:46:27.257Z,18.10
2018-04-10T19:48:53.430Z,17.73
2018-04-10T19:51:20.338Z,18.63
2018-04-10T19:53:46.503Z,20.30
2018-04-10T19:56:13.066Z,19.23
2018-04-10T19:58:39.969Z,18.40
2018-04-10T20:01:06.139Z,16.73
2018-04-10T20:03:33.062Z,17.43
2018-04-10T20:05:59.228Z,18.47
2018-04-10T20:08:26.161Z,18.70
2018-04-10T20:10:52.319Z,16.53
2018-04-10T20:13:18.530Z,16.97
2018-04-10T20:15:45.441Z,16.83
2018-04-10T20:18:11.631Z,16.60
2018-04-10T20:20:37.831Z,16.07
2018-04-10T20:23:03.986Z,17.33
2018-04-10T20:25:30.171Z,15.87
2018-04-10T20:27:56.354Z,16.77
2018-04-10T20:30:23.282Z,15.90
2018-04-10T20:32:49.476Z,16.20
2018-04-10T20:35:15.642Z,15.97
2018-04-10T20:37:42.573Z,17.33
2018-04-10T20:40:08.737Z,17.07
2018-04-10T20:42:35.673Z,15.43
2018-04-10T20:45:01.854Z,16.73
2018-04-10T20:47:28.088Z,15.40
2018-04-10T20:49:54.985Z,15.20
2018-04-10T20:52:21.156Z,15.07
2018-04-10T20:54:48.064Z,16.20
2018-04-10T20:57:14.281Z,15.47
2018-04-10T20:59:40.433Z,14.73
2018-04-10T21:02:07.398Z,15.57
2018-04-10T21:04:33.554Z,15.53
2018-04-10T21:06:59.825Z,16.13
2018-04-10T21:09:25.994Z,15.77
2018-04-10T21:11:52.160Z,13.80
2018-04-10T21:14:19.076Z,14.63
2018-04-10T21:16:46.018Z,14.03
2018-04-10T21:19:12.178Z,13.93
2018-04-10T21:21:38.335Z,13.30
2018-04-10T21:24:05.226Z,14.90
2018-04-10T21:26:31.408Z,16.67
2018-04-10T21:28:58.318Z,13.73
2018-04-10T21:31:24.523Z,12.40
2018-04-10T21:33:50.642Z,13.60
2018-04-10T21:36:16.806Z,14.33
2018-04-10T21:38:43.764Z,14.20
2018-04-10T21:41:09.994Z,13.73
2018-04-10T21:43:36.168Z,12.30
2018-04-10T21:46:02.351Z,13.53
2018-04-10T21:48:28.821Z,12.50
2018-04-10T21:50:55.050Z,13.70
2018-04-10T21:53:21.253Z,13.30
2018-04-10T21:55:47.448Z,11.93
2018-04-10T21:58:13.823Z,13.00
2018-04-10T22:00:40.040Z,12.20
2018-04-10T22:03:06.939Z,13.40
2018-04-10T22:05:33.174Z,11.77
2018-04-10T22:07:59.347Z,12.03
2018-04-10T22:10:25.557Z,12.07
2018-04-10T22:12:51.725Z,11.27
2018-04-10T22:15:18.626Z,10.83
2018-04-10T22:17:44.823Z,12.73
2018-04-10T22:20:11.012Z,10.77
2018-04-10T22:22:37.135Z,10.80
2018-04-10T22:25:03.294Z,9.97
2018-04-10T22:27:30.219Z,10.30
2018-04-10T22:29:56.394Z,12.43
2018-04-10T22:32:22.558Z,9.67
2018-04-10T22:34:48.726Z,10.70
2018-04-10T22:37:14.890Z,12.37
2018-04-10T22:39:41.850Z,10.57
2018-04-10T22:42:08.014Z,10.93
2018-04-10T22:44:34.919Z,9.57
2018-04-10T22:47:01.078Z,8.90
2018-04-10T22:49:27.253Z,10.50
2018-04-10T22:51:53.426Z,10.20
2018-04-10T22:54:23.483Z,10.40
2018-04-10T22:56:49.635Z,10.50
2018-04-10T22:59:16.546Z,9.47
2018-04-10T23:01:42.713Z,9.43
2018-04-10T23:04:09.635Z,8.80
2018-04-10T23:06:35.789Z,9.33
2018-04-10T23:09:01.965Z,9.70
2018-04-10T23:11:28.134Z,8.80
2018-04-10T23:13:54.301Z,9.37
2018-04-10T23:16:21.218Z,8.50
2018-04-10T23:18:47.397Z,8.10
2018-04-10T23:21:13.657Z,10.40
2018-04-10T23:23:39.810Z,9.47
2018-04-10T23:26:05.971Z,8.60
2018-04-10T23:28:32.115Z,8.70
2018-04-10T23:30:58.295Z,7.30
2018-04-10T23:33:24.494Z,9.50
2018-04-10T23:35:50.647Z,8.93
2018-04-10T23:38:17.539Z,8.33
2018-04-10T23:40:43.927Z,8.03
2018-04-10T23:43:10.101Z,7.40
2018-04-10T23:45:36.283Z,9.23
2018-04-10T23:48:02.471Z,7.33
2018-04-10T23:50:28.618Z,8.00
2018-04-10T23:52:54.776Z,8.43
2018-04-10T23:55:20.977Z,8.20
2018-04-10T23:57:47.837Z,7.80
